createdAt,value
2023-01-02T00:05:30.624Z,22.56
2023-01-02T00:15:33.802Z,22.57
2023-01-02T00:25:36.939Z,22.57
2023-01-02T00:35:40.118Z,22.56
2023-01-02T00:45:43.263Z,22.56
2023-01-02T00:55:46.547Z,22.57
2023-01-02T01:05:49.689Z,22.59
2023-01-02T01:15:53.058Z,22.56
2023-01-02T01:25:56.235Z,22.57
2023-01-02T01:35:59.420Z,22.57
2023-01-02T01:46:02.697Z,22.59
2023-01-02T01:56:05.894Z,22.59
2023-01-02T02:06:09.041Z,22.57
2023-01-02T02:16:12.300Z,22.59
2023-01-02T02:26:15.457Z,22.59
2023-01-02T02:36:18.734Z,22.59
2023-01-02T02:46:21.952Z,22.59
2023-01-02T02:56:25.157Z,22.59
2023-01-02T03:06:28.296Z,22.59
2023-01-02T03:16:31.575Z,22.59
2023-01-02T03:26:34.761Z,22.62
2023-01-02T03:36:38.073Z,22.59
2023-01-02T03:46:41.234Z,22.59
2023-01-02T03:56:44.415Z,22.59
2023-01-02T04:06:47.559Z,22.59
2023-01-02T04:16:50.901Z,22.60
2023-01-02T04:26:54.037Z,22.59
2023-01-02T04:36:57.227Z,22.62
2023-01-02T04:47:00.367Z,22.62
2023-01-02T04:57:03.559Z,22.62
2023-01-02T05:07:06.705Z,22.62
2023-01-02T05:17:09.889Z,22.62
2023-01-02T05:27:13.029Z,22.62
2023-01-02T05:37:16.318Z,22.65
2023-01-02T05:47:19.457Z,22.65
2023-01-02T05:57:22.664Z,22.64
2023-01-02T06:07:25.813Z,22.62
2023-01-02T06:17:29.019Z,22.64
2023-01-02T06:27:32.179Z,22.64
2023-01-02T06:37:35.360Z,22.64
2023-01-02T06:47:38.526Z,22.64
2023-01-02T06:57:41.703Z,22.65
2023-01-02T07:07:44.854Z,22.62
2023-01-02T07:17:48.132Z,22.64
2023-01-02T07:27:51.269Z,22.65
2023-01-02T07:37:54.459Z,22.65
2023-01-02T07:47:57.604Z,22.64
2023-01-02T07:58:00.858Z,22.65
2023-01-02T08:08:04.007Z,22.64
2023-01-02T08:18:07.200Z,22.64
2023-01-02T08:28:10.352Z,22.65
2023-01-02T08:38:13.534Z,22.64
2023-01-02T08:48:19.762Z,22.65
2023-01-02T08:58:20.688Z,22.65
2023-01-02T09:08:23.849Z,22.68
2023-01-02T09:18:29.501Z,22.65
2023-01-02T09:28:30.332Z,22.65
2023-01-02T09:38:33.530Z,22.65
2023-01-02T09:48:36.689Z,22.67
2023-01-02T09:58:39.954Z,22.68
2023-01-02T10:08:43.093Z,22.67
2023-01-02T10:18:46.371Z,22.67
2023-01-02T10:28:49.541Z,22.68
2023-01-02T10:38:52.746Z,22.67
2023-01-02T10:48:55.911Z,22.68
2023-01-02T10:58:59.102Z,22.68
2023-01-02T11:09:02.236Z,22.68
2023-01-02T11:19:05.451Z,22.68
2023-01-02T11:29:08.605Z,22.68
2023-01-02T11:39:11.779Z,22.68
2023-01-02T11:49:14.922Z,22.69
2023-01-02T11:59:18.115Z,22.69
2023-01-02T12:09:21.259Z,22.69
2023-01-02T12:19:24.444Z,22.69
2023-01-02T12:29:46.656Z,22.69
2023-01-02T12:39:31.588Z,22.69
2023-01-02T12:49:34.758Z,22.71
2023-01-02T12:59:37.940Z,22.71
2023-01-02T13:09:41.136Z,22.71
2023-01-02T13:19:44.422Z,22.71
2023-01-02T13:40:39.409Z,22.69
2023-01-02T13:50:42.551Z,22.72
2023-01-02T14:00:51.421Z,22.72
2023-01-02T14:10:49.677Z,22.72
2023-01-02T14:20:52.891Z,22.71
2023-01-02T14:30:56.078Z,22.72
2023-01-02T14:40:59.275Z,22.72
2023-01-02T14:51:02.434Z,22.71
2023-01-02T15:01:05.624Z,22.74
2023-01-02T15:11:08.794Z,22.71
2023-01-02T15:21:12.083Z,22.71
2023-01-02T15:31:15.445Z,22.71
2023-01-02T15:41:18.754Z,22.71
2023-01-02T15:51:40.070Z,22.71
2023-01-02T16:01:25.968Z,22.71
2023-01-02T16:11:29.190Z,22.71
2023-01-02T16:21:32.375Z,22.72
2023-01-02T16:31:35.530Z,22.71
2023-01-02T16:41:38.724Z,22.72
2023-01-02T16:51:41.876Z,22.72
2023-01-02T17:01:45.186Z,22.72
2023-01-02T17:11:48.372Z,22.72
2023-01-02T17:21:51.556Z,22.71
2023-01-02T17:31:54.769Z,22.71
2023-01-02T17:41:58.058Z,22.72
2023-01-02T17:52:01.214Z,22.72
2023-01-02T18:02:04.566Z,22.71
2023-01-02T18:12:07.786Z,22.71
2023-01-02T18:22:10.983Z,22.71
2023-01-02T18:32:14.151Z,22.69
2023-01-02T18:42:17.353Z,22.71
2023-01-02T18:52:20.535Z,22.71
2023-01-02T19:02:23.917Z,22.72
2023-01-02T19:12:27.166Z,22.71
2023-01-02T19:22:30.361Z,22.71
2023-01-02T19:32:33.515Z,22.71
2023-01-02T19:42:36.802Z,22.72
2023-01-02T19:52:39.959Z,22.71
2023-01-02T20:02:43.428Z,22.71
2023-01-02T20:12:46.712Z,22.71
2023-01-02T20:22:49.952Z,22.71
2023-01-02T20:32:53.169Z,22.71
2023-01-02T20:42:56.355Z,22.71
2023-01-02T20:52:59.511Z,22.71
2023-01-02T21:03:03.009Z,22.71
2023-01-02T21:13:06.340Z,22.71
2023-01-02T21:23:09.539Z,22.72
2023-01-02T21:33:12.682Z,22.71
2023-01-02T21:43:15.858Z,22.72
2023-01-02T21:53:18.999Z,22.69
2023-01-02T22:03:22.417Z,22.69
2023-01-02T22:13:25.708Z,22.68
2023-01-02T22:23:28.887Z,22.69
2023-01-02T22:33:32.047Z,22.69
2023-01-02T22:43:35.241Z,22.68
2023-01-02T22:53:38.406Z,22.71
2023-01-02T23:03:41.691Z,22.69
2023-01-02T23:13:44.906Z,22.69
2023-01-02T23:23:48.099Z,22.69
2023-01-02T23:33:51.311Z,22.69
2023-01-02T23:43:54.492Z,22.69
2023-01-02T23:53:57.627Z,22.68
